Time;durP1;ratioP1;P1;durP2;ratioP2;P2;SDS_P1;SDS_P2;PMS_P1;PMS_P2;Temp;Humidity;BMP_temperature;BMP_pressure;BME280_temperature;BME280_humidity;BME280_pressure;Samples;Min_cycle;Max_cycle;Signal;HPM_P1;HPM_P2
2023/04/24 00:02:06;;;;;;;0.63;0.60;;;11.00;99.90;;;;;;4950209;29;20061;-74
2023/04/24 00:04:32;;;;;;;2.13;0.77;;;11.10;99.90;;;;;;4953624;29;20055;-73
2023/04/24 00:06:59;;;;;;;1.27;0.50;;;11.10;99.90;;;;;;4953669;29;20037;-74
2023/04/24 00:09:25;;;;;;;1.20;0.68;;;11.10;99.90;;;;;;4953063;29;20776;-74
2023/04/24 00:11:51;;;;;;;2.75;0.50;;;11.10;99.90;;;;;;4954380;29;20034;-74
2023/04/24 00:14:17;;;;;;;1.50;0.65;;;11.20;99.90;;;;;;4953955;29;20053;-74
2023/04/24 00:16:43;;;;;;;1.80;0.50;;;11.20;99.90;;;;;;4960276;28;20472;-74
2023/04/24 00:19:09;;;;;;;1.63;0.80;;;11.30;99.90;;;;;;4951288;29;20491;-75
2023/04/24 00:21:35;;;;;;;1.42;0.52;;;11.20;99.90;;;;;;4950855;29;20118;-74
2023/04/24 00:24:00;;;;;;;1.38;0.57;;;11.20;99.90;;;;;;4968088;29;20059;-75
2023/04/24 00:26:26;;;;;;;2.70;1.30;;;11.10;99.90;;;;;;4969513;29;20085;-74
2023/04/24 00:28:51;;;;;;;1.40;0.50;;;11.10;99.90;;;;;;4970716;29;20039;-74
2023/04/24 00:31:17;;;;;;;3.05;0.70;;;11.00;99.90;;;;;;4965348;29;20063;-74
2023/04/24 00:33:43;;;;;;;1.00;0.65;;;11.00;99.90;;;;;;4969804;29;20047;-74
2023/04/24 00:36:08;;;;;;;1.85;0.85;;;11.00;99.90;;;;;;4953626;29;20059;-74
2023/04/24 00:38:34;;;;;;;1.60;0.55;;;11.10;99.90;;;;;;4954141;29;20421;-73
2023/04/24 00:41:00;;;;;;;2.45;0.40;;;11.10;99.90;;;;;;4953847;29;20039;-73
2023/04/24 00:43:25;;;;;;;2.53;0.60;;;11.20;99.90;;;;;;4954606;29;20039;-73
2023/04/24 00:45:51;;;;;;;1.55;0.52;;;11.20;99.90;;;;;;4953977;29;20030;-73
2023/04/24 00:48:17;;;;;;;1.13;0.70;;;11.20;99.90;;;;;;4949038;29;20401;-73
2023/04/24 00:50:43;;;;;;;1.17;0.35;;;11.10;99.90;;;;;;4952877;29;20385;-74
2023/04/24 00:53:09;;;;;;;2.10;0.65;;;11.20;99.90;;;;;;4951641;29;20027;-74
2023/04/24 00:55:37;;;;;;;1.13;0.50;;;11.20;99.90;;;;;;4947470;29;20024;-73
2023/04/24 00:58:02;;;;;;;3.17;0.70;;;11.30;99.90;;;;;;4951650;29;20484;-73
2023/04/24 01:00:28;;;;;;;1.38;0.60;;;11.40;99.90;;;;;;4951804;29;20044;-73
2023/04/24 01:02:55;;;;;;;3.33;0.50;;;11.40;99.90;;;;;;4952339;29;20046;-73
2023/04/24 01:05:21;;;;;;;3.42;0.70;;;11.50;99.90;;;;;;4951468;28;20054;-73
2023/04/24 01:07:48;;;;;;;3.72;1.13;;;11.60;99.90;;;;;;4952354;29;20027;-73
2023/04/24 01:10:15;;;;;;;0.75;0.57;;;11.60;99.90;;;;;;4951771;29;20495;-74
2023/04/24 01:12:41;;;;;;;1.80;0.50;;;11.60;99.90;;;;;;4952766;29;20031;-73
2023/04/24 01:15:07;;;;;;;1.38;0.63;;;11.50;99.90;;;;;;4952505;29;20042;-74
2023/04/24 01:17:33;;;;;;;1.75;0.40;;;11.60;99.90;;;;;;4951188;29;20050;-73
2023/04/24 01:19:59;;;;;;;1.40;0.77;;;11.60;99.90;;;;;;4952204;29;20381;-73
2023/04/24 01:22:26;;;;;;;1.35;0.70;;;11.60;99.90;;;;;;4950860;29;20521;-73
2023/04/24 01:24:52;;;;;;;1.25;0.60;;;11.60;99.90;;;;;;4953224;29;20045;-72
2023/04/24 01:27:19;;;;;;;2.47;0.50;;;11.50;99.90;;;;;;4951525;29;20027;-73
2023/04/24 01:29:45;;;;;;;1.52;0.70;;;11.50;99.90;;;;;;4954813;28;20023;-72
2023/04/24 01:32:11;;;;;;;1.02;0.57;;;11.50;99.90;;;;;;4955019;28;20037;-73
2023/04/24 01:34:38;;;;;;;1.77;0.60;;;11.50;99.90;;;;;;4952821;29;20043;-73
2023/04/24 01:37:04;;;;;;;1.58;0.50;;;11.50;99.90;;;;;;4951486;29;20067;-72
2023/04/24 01:39:30;;;;;;;1.52;0.70;;;11.40;99.90;;;;;;4951679;29;20073;-72
2023/04/24 01:41:56;;;;;;;1.23;0.82;;;11.20;99.90;;;;;;4951637;29;20511;-72
2023/04/24 01:44:22;;;;;;;0.85;0.50;;;11.10;99.90;;;;;;4951885;29;20392;-73
2023/04/24 01:46:48;;;;;;;3.10;0.60;;;11.00;99.90;;;;;;4950523;29;20038;-73
2023/04/24 01:49:13;;;;;;;2.10;0.70;;;10.90;99.90;;;;;;4951014;29;21108;-73
2023/04/24 01:51:39;;;;;;;3.70;0.50;;;10.90;99.90;;;;;;4950988;29;20027;-73
2023/04/24 01:54:05;;;;;;;1.20;0.50;;;10.90;99.90;;;;;;4945051;29;20035;-73
2023/04/24 01:56:35;;;;;;;3.22;0.82;;;10.90;99.90;;;;;;4947942;29;20024;-73
2023/04/24 01:59:03;;;;;;;3.35;0.60;;;10.90;99.90;;;;;;4951730;29;20504;-73
2023/04/24 02:01:35;;;;;;;2.35;0.65;;;10.90;99.90;;;;;;4950206;29;20043;-73
2023/04/24 02:04:01;;;;;;;2.53;0.60;;;10.90;99.90;;;;;;4951620;29;20625;-72
2023/04/24 02:06:27;;;;;;;2.10;0.77;;;10.90;99.90;;;;;;4950290;29;20024;-72
2023/04/24 02:08:53;;;;;;;2.70;1.02;;;10.90;99.90;;;;;;4951856;29;20148;-72
2023/04/24 02:11:18;;;;;;;0.85;0.60;;;10.90;99.90;;;;;;4950898;29;20370;-72
2023/04/24 02:13:44;;;;;;;1.88;0.60;;;10.80;99.90;;;;;;4952352;29;20082;-74
2023/04/24 02:16:10;;;;;;;1.00;0.60;;;10.80;99.90;;;;;;4951727;29;20034;-75
2023/04/24 02:18:35;;;;;;;0.95;0.40;;;10.80;99.90;;;;;;4953799;28;20031;-74
2023/04/24 02:21:01;;;;;;;2.03;0.60;;;10.70;99.90;;;;;;4955915;29;20039;-73
2023/04/24 02:23:27;;;;;;;2.85;0.70;;;10.70;99.90;;;;;;4954449;29;20625;-73
2023/04/24 02:25:53;;;;;;;1.38;0.55;;;10.70;99.90;;;;;;4956061;29;20023;-74
2023/04/24 02:28:19;;;;;;;0.80;0.40;;;10.70;99.90;;;;;;4952531;29;20030;-74
2023/04/24 02:30:45;;;;;;;2.63;0.40;;;10.70;99.90;;;;;;4939120;29;20031;-73
2023/04/24 02:33:11;;;;;;;1.98;0.60;;;10.70;99.90;;;;;;4956389;28;20038;-74
2023/04/24 02:35:37;;;;;;;1.77;0.60;;;10.70;99.90;;;;;;4956396;29;20038;-73
2023/04/24 02:38:03;;;;;;;1.48;0.47;;;10.80;99.90;;;;;;4950805;29;20334;-73
2023/04/24 02:40:29;;;;;;;0.80;0.60;;;10.80;99.90;;;;;;4948621;29;20074;-73
2023/04/24 02:42:54;;;;;;;2.10;0.70;;;10.80;99.90;;;;;;4954843;28;20030;-73
2023/04/24 02:45:20;;;;;;;1.58;0.45;;;10.80;99.90;;;;;;4955077;29;20032;-73
2023/04/24 02:47:45;;;;;;;1.75;0.57;;;10.80;99.90;;;;;;4952966;29;20031;-73
2023/04/24 02:50:11;;;;;;;0.65;0.50;;;10.80;99.90;;;;;;4954808;29;20081;-74
2023/04/24 02:52:37;;;;;;;1.13;0.47;;;10.70;99.90;;;;;;4954190;29;20023;-73
2023/04/24 02:55:04;;;;;;;2.83;0.70;;;;;;;;;;4947998;29;20105;-74
2023/04/24 02:57:31;;;;;;;1.33;0.73;;;;;;;;;;4951889;29;20061;-73
2023/04/24 02:59:56;;;;;;;2.20;0.80;;;10.20;99.90;;;;;;4954118;29;20086;-73
2023/04/24 03:02:25;;;;;;;1.50;0.65;;;;;;;;;;4950071;29;20040;-73
2023/04/24 03:04:53;;;;;;;2.45;0.90;;;;;;;;;;4951976;29;20532;-74
2023/04/24 03:07:20;;;;;;;1.02;0.57;;;;;;;;;;4949371;29;20212;-72
2023/04/24 03:09:46;;;;;;;3.08;0.47;;;;;;;;;;4950892;29;20037;-73
2023/04/24 03:12:12;;;;;;;5.57;1.13;;;;;;;;;;4949218;29;20039;-74
2023/04/24 03:14:38;;;;;;;3.20;0.70;;;;;;;;;;4952518;29;20046;-73
2023/04/24 03:17:04;;;;;;;1.70;0.70;;;;;;;;;;4932041;29;20426;-74
2023/04/24 03:19:30;;;;;;;3.10;0.50;;;;;;;;;;4952252;29;20142;-73
2023/04/24 03:21:56;;;;;;;2.60;0.70;;;;;;;;;;4951865;29;20388;-73
2023/04/24 03:24:22;;;;;;;1.20;0.47;;;;;;;;;;4949887;29;20079;-73
2023/04/24 03:26:48;;;;;;;1.45;0.60;;;;;;;;;;4948397;29;20031;-73
2023/04/24 03:29:14;;;;;;;1.83;0.50;;;;;;;;;;4947758;29;20058;-74
2023/04/24 03:31:40;;;;;;;3.30;1.00;;;;;;;;;;4950179;29;20030;-73
2023/04/24 03:34:06;;;;;;;0.93;0.60;;;;;;;;;;4954247;29;20028;-73
2023/04/24 03:36:32;;;;;;;2.60;0.70;;;;;;;;;;4954282;29;20094;-73
2023/04/24 03:38:58;;;;;;;1.60;0.70;;;;;;;;;;4958140;28;20477;-73
2023/04/24 03:41:24;;;;;;;0.68;0.47;;;;;;;;;;4936300;29;20054;-73
2023/04/24 03:43:50;;;;;;;3.22;1.08;;;;;;;;;;4954579;29;20028;-74
2023/04/24 03:46:16;;;;;;;2.20;0.70;;;;;;;;;;4952327;28;20121;-74
2023/04/24 03:48:42;;;;;;;1.13;0.80;;;;;;;;;;4954486;29;20023;-74
2023/04/24 03:51:08;;;;;;;2.75;0.70;;;;;;;;;;4954108;29;20397;-73
2023/04/24 03:53:34;;;;;;;2.67;0.85;;;;;;;;;;4953124;29;20047;-75
2023/04/24 03:56:00;;;;;;;1.88;0.77;;;;;;;;;;4948804;29;20481;-73
2023/04/24 03:58:26;;;;;;;1.85;0.93;;;;;;;;;;4953014;29;20035;-73
2023/04/24 04:00:52;;;;;;;2.47;0.70;;;;;;;;;;4954093;29;20039;-73
2023/04/24 04:03:18;;;;;;;2.10;0.88;;;;;;;;;;4950257;29;20058;-73
2023/04/24 04:05:44;;;;;;;1.58;0.60;;;;;;;;;;4953597;29;20031;-74
2023/04/24 04:08:10;;;;;;;1.83;0.63;;;;;;;;;;4952394;29;20078;-75
2023/04/24 04:10:36;;;;;;;0.82;0.50;;;;;;;;;;4950304;29;20115;-73
2023/04/24 04:13:02;;;;;;;2.30;0.93;;;;;;;;;;4951063;29;20514;-71
2023/04/24 04:15:28;;;;;;;2.20;0.95;;;;;;;;;;4953216;29;20068;-72
2023/04/24 04:17:54;;;;;;;0.73;0.43;;;;;;;;;;4951383;29;20483;-73
2023/04/24 04:20:20;;;;;;;1.90;0.40;;;;;;;;;;4935264;29;20043;-74
2023/04/24 04:22:46;;;;;;;1.55;0.60;;;;;;;;;;4953470;29;20126;-73
2023/04/24 04:25:13;;;;;;;1.20;0.60;;;;;;;;;;4952437;29;20086;-74
2023/04/24 04:27:41;;;;;;;2.38;0.65;;;;;;;;;;4941592;29;20035;-73
2023/04/24 04:30:08;;;;;;;1.02;0.73;;;;;;;;;;4953102;29;20039;-73
2023/04/24 04:32:34;;;;;;;1.40;0.47;;;;;;;;;;4952873;29;20020;-73
2023/04/24 04:35:04;;;;;;;1.63;0.50;;;;;;;;;;4953507;29;20019;-73
2023/04/24 04:37:31;;;;;;;0.75;0.75;;;;;;;;;;4951948;29;20019;-73
2023/04/24 04:39:57;;;;;;;0.55;0.52;;;;;;;;;;4953207;28;20425;-73
2023/04/24 04:42:24;;;;;;;4.28;1.02;;;;;;;;;;4960947;28;20039;-72
2023/04/24 04:44:50;;;;;;;2.97;0.80;;;;;;;;;;4953753;29;20358;-73
2023/04/24 04:47:17;;;;;;;1.38;0.98;;;;;;;;;;4950060;28;20054;-74
2023/04/24 04:49:43;;;;;;;1.65;0.80;;;;;;;;;;4952736;29;20027;-73
2023/04/24 04:52:09;;;;;;;1.63;0.80;;;;;;;;;;4944930;29;20043;-73
2023/04/24 04:54:35;;;;;;;1.35;0.80;;;;;;;;;;4952287;29;20031;-73
2023/04/24 04:57:01;;;;;;;0.90;0.90;;;9.00;99.90;;;;;;4952715;29;20593;-73
2023/04/24 04:59:27;;;;;;;1.77;1.27;;;8.90;99.90;;;;;;4951816;29;20035;-72
2023/04/24 05:01:52;;;;;;;1.45;0.90;;;8.70;99.90;;;;;;4950433;29;20035;-73
2023/04/24 05:04:18;;;;;;;1.10;1.00;;;8.60;99.90;;;;;;4932192;29;20043;-73
2023/04/24 05:06:44;;;;;;;1.70;0.80;;;8.50;99.90;;;;;;4946015;29;20115;-72
2023/04/24 05:09:10;;;;;;;1.30;1.17;;;8.50;99.90;;;;;;4949865;29;20110;-73
2023/04/24 05:11:35;;;;;;;1.38;1.27;;;8.50;99.90;;;;;;4949740;29;20121;-72
2023/04/24 05:14:01;;;;;;;1.63;1.10;;;8.50;99.90;;;;;;4953159;29;20206;-74
2023/04/24 05:16:27;;;;;;;1.83;1.30;;;8.50;99.90;;;;;;4949641;29;20019;-72
2023/04/24 05:18:52;;;;;;;0.73;0.70;;;8.60;99.90;;;;;;4953086;29;20423;-73
2023/04/24 05:21:18;;;;;;;1.75;1.05;;;8.60;99.90;;;;;;4951131;29;20098;-74
2023/04/24 05:23:43;;;;;;;4.03;1.00;;;8.60;99.90;;;;;;4952797;29;20108;-73
2023/04/24 05:26:09;;;;;;;2.50;1.10;;;8.60;99.90;;;;;;4950872;29;20043;-74
2023/04/24 05:28:36;;;;;;;1.20;1.10;;;8.70;99.90;;;;;;4950971;29;20042;-73
2023/04/24 05:31:02;;;;;;;1.27;0.90;;;8.70;99.90;;;;;;4952436;29;20039;-73
2023/04/24 05:33:28;;;;;;;1.65;1.10;;;8.80;99.90;;;;;;4951125;29;20606;-73
2023/04/24 05:35:53;;;;;;;1.23;1.13;;;8.80;99.90;;;;;;4951176;29;20027;-73
2023/04/24 05:38:19;;;;;;;1.98;0.95;;;8.80;99.90;;;;;;4950718;29;20038;-73
2023/04/24 05:40:45;;;;;;;1.30;1.13;;;8.90;99.90;;;;;;4952575;29;20039;-73
2023/04/24 05:43:12;;;;;;;3.03;1.10;;;8.90;99.90;;;;;;4951490;29;20031;-74
2023/04/24 05:45:38;;;;;;;1.83;1.20;;;8.90;99.90;;;;;;4965127;28;20054;-73
2023/04/24 05:48:04;;;;;;;3.10;1.10;;;9.00;99.90;;;;;;4952205;29;20147;-73
2023/04/24 05:50:30;;;;;;;2.28;1.17;;;9.00;99.90;;;;;;4951035;29;20911;-72
2023/04/24 05:52:57;;;;;;;1.77;1.20;;;9.10;99.90;;;;;;4955124;28;20059;-73
2023/04/24 05:55:24;;;;;;;1.77;1.23;;;9.10;99.90;;;;;;4955009;28;20055;-73
2023/04/24 05:57:50;;;;;;;1.67;1.17;;;9.20;99.90;;;;;;4957599;29;20519;-73
2023/04/24 06:00:17;;;;;;;2.35;1.23;;;9.20;99.90;;;;;;4957516;29;20031;-72
2023/04/24 06:02:43;;;;;;;1.60;1.08;;;9.30;99.90;;;;;;4957868;28;20413;-73
2023/04/24 06:05:09;;;;;;;2.95;1.08;;;9.30;99.90;;;;;;4957996;29;20043;-73
2023/04/24 06:07:35;;;;;;;3.45;1.15;;;9.30;99.90;;;;;;4953988;28;20035;-74
2023/04/24 06:10:00;;;;;;;2.40;1.23;;;9.40;99.90;;;;;;4950419;29;20046;-73
2023/04/24 06:12:27;;;;;;;2.17;1.20;;;9.40;99.90;;;;;;4957242;28;20023;-74
2023/04/24 06:14:54;;;;;;;3.53;1.00;;;9.40;99.90;;;;;;4958949;29;20031;-69
2023/04/24 06:17:19;;;;;;;1.27;1.10;;;9.40;99.90;;;;;;4957096;29;20090;-73
2023/04/24 06:19:45;;;;;;;2.13;1.23;;;9.40;99.90;;;;;;4958395;29;20027;-74
2023/04/24 06:22:10;;;;;;;1.40;1.30;;;9.40;99.90;;;;;;4949713;28;20039;-73
2023/04/24 06:24:36;;;;;;;2.33;1.60;;;9.30;99.90;;;;;;4948025;28;20031;-74
2023/04/24 06:27:02;;;;;;;2.08;1.50;;;9.30;99.90;;;;;;4955877;28;20034;-73
2023/04/24 06:29:28;;;;;;;2.55;1.50;;;9.40;99.90;;;;;;4957437;28;20094;-74
2023/04/24 06:31:53;;;;;;;2.83;1.38;;;9.50;99.90;;;;;;4959028;29;20102;-72
2023/04/24 06:34:19;;;;;;;1.45;1.23;;;9.70;99.90;;;;;;4939646;29;20027;-73
2023/04/24 06:36:46;;;;;;;1.52;1.42;;;9.80;99.90;;;;;;4954222;29;20540;-72
2023/04/24 06:39:12;;;;;;;2.63;1.30;;;10.00;99.90;;;;;;4957212;28;20110;-73
2023/04/24 06:41:38;;;;;;;1.30;1.20;;;10.10;99.90;;;;;;4958262;28;20474;-73
2023/04/24 06:44:03;;;;;;;4.30;1.50;;;10.30;99.90;;;;;;4958463;29;20465;-71
2023/04/24 06:46:29;;;;;;;2.47;1.40;;;10.40;99.90;;;;;;4957150;28;20681;-71
2023/04/24 06:48:55;;;;;;;2.15;1.30;;;10.60;99.90;;;;;;4960735;28;20486;-72
2023/04/24 06:51:23;;;;;;;2.40;1.20;;;10.80;99.90;;;;;;4954403;28;20060;-72
2023/04/24 06:53:49;;;;;;;3.15;1.58;;;10.90;99.90;;;;;;4958219;28;20054;-72
2023/04/24 06:56:15;;;;;;;4.97;1.48;;;11.10;99.90;;;;;;4943336;28;20045;-72
2023/04/24 06:58:41;;;;;;;2.88;1.77;;;11.20;99.90;;;;;;4954716;29;20523;-72
2023/04/24 07:01:07;;;;;;;3.53;1.38;;;11.40;99.90;;;;;;4953558;29;20043;-73
2023/04/24 07:03:32;;;;;;;2.65;1.23;;;11.50;99.90;;;;;;4950999;28;20878;-72
2023/04/24 07:05:58;;;;;;;2.72;1.40;;;11.70;99.90;;;;;;4953352;29;20025;-71
2023/04/24 07:08:25;;;;;;;3.35;1.83;;;11.80;99.90;;;;;;4953145;29;20036;-72
2023/04/24 07:10:51;;;;;;;1.50;1.30;;;11.90;99.90;;;;;;4952816;29;20039;-72
2023/04/24 07:13:17;;;;;;;2.00;1.38;;;12.10;99.90;;;;;;4951961;29;20031;-72
2023/04/24 07:15:43;;;;;;;3.65;1.45;;;12.20;99.90;;;;;;4950046;29;20434;-71
2023/04/24 07:18:08;;;;;;;2.38;1.60;;;12.20;99.90;;;;;;4948577;29;20039;-72
2023/04/24 07:20:34;;;;;;;2.25;1.30;;;12.10;99.90;;;;;;4952915;29;20045;-72
2023/04/24 07:23:00;;;;;;;4.65;1.42;;;12.00;99.90;;;;;;4948757;29;20030;-71
2023/04/24 07:25:26;;;;;;;1.63;1.30;;;11.90;99.90;;;;;;4953931;29;20046;-71
2023/04/24 07:27:52;;;;;;;1.60;1.00;;;11.80;99.90;;;;;;4947556;29;20035;-71
2023/04/24 07:30:17;;;;;;;1.52;1.27;;;11.70;99.90;;;;;;4950155;29;20030;-71
2023/04/24 07:32:43;;;;;;;5.03;1.98;;;11.70;99.90;;;;;;4950999;29;20036;-71
2023/04/24 07:35:09;;;;;;;1.55;0.95;;;11.90;99.90;;;;;;4953053;29;20098;-73
2023/04/24 07:37:35;;;;;;;1.92;1.17;;;12.00;99.90;;;;;;4952285;29;20031;-71
2023/04/24 07:40:01;;;;;;;3.00;1.08;;;12.10;99.90;;;;;;4948190;29;20377;-70
2023/04/24 07:42:27;;;;;;;2.05;1.00;;;12.20;99.90;;;;;;4950019;29;20050;-71
2023/04/24 07:44:53;;;;;;;2.60;1.20;;;12.20;99.90;;;;;;4948091;29;20031;-71
2023/04/24 07:47:18;;;;;;;2.05;0.93;;;12.50;99.90;;;;;;4938762;29;20027;-70
2023/04/24 07:49:44;;;;;;;1.67;0.93;;;12.70;99.90;;;;;;4950673;29;20031;-71
2023/04/24 07:52:10;;;;;;;2.05;1.00;;;12.90;99.90;;;;;;4945093;28;20496;-71
2023/04/24 07:54:37;;;;;;;5.35;1.10;;;13.00;99.90;;;;;;4947822;28;20580;-72
2023/04/24 07:57:03;;;;;;;2.55;0.80;;;13.40;99.90;;;;;;4950736;29;20065;-70
2023/04/24 07:59:28;;;;;;;1.48;1.17;;;13.70;99.90;;;;;;4945982;29;20051;-72
2023/04/24 08:01:54;;;;;;;1.15;0.75;;;13.80;99.90;;;;;;4943758;29;20428;-71
2023/04/24 08:04:20;;;;;;;2.25;0.90;;;13.80;99.90;;;;;;4951943;29;20051;-72
2023/04/24 08:06:47;;;;;;;3.38;1.30;;;13.80;99.90;;;;;;4950106;29;20031;-71
2023/04/24 08:09:13;;;;;;;1.73;0.80;;;13.70;99.90;;;;;;4952840;29;20031;-70
2023/04/24 08:11:39;;;;;;;2.58;1.27;;;13.60;99.90;;;;;;4951009;29;20038;-71
2023/04/24 08:14:04;;;;;;;4.10;1.02;;;13.50;99.90;;;;;;4933605;29;20031;-71
2023/04/24 08:16:30;;;;;;;1.08;0.75;;;13.40;99.90;;;;;;4948292;28;20142;-71
2023/04/24 08:18:55;;;;;;;2.17;1.10;;;13.30;99.90;;;;;;4953128;29;20078;-72
2023/04/24 08:21:21;;;;;;;3.40;1.20;;;13.20;99.90;;;;;;4945269;29;20039;-72
2023/04/24 08:23:47;;;;;;;3.53;0.98;;;13.00;99.90;;;;;;4951785;29;20024;-71
2023/04/24 08:26:13;;;;;;;2.08;0.90;;;12.90;99.90;;;;;;4948727;29;20031;-72
2023/04/24 08:28:38;;;;;;;4.63;1.08;;;12.80;99.90;;;;;;4953654;29;20034;-71
2023/04/24 08:31:05;;;;;;;2.50;0.75;;;12.70;99.90;;;;;;4952964;29;20035;-71
2023/04/24 08:33:34;;;;;;;2.30;1.13;;;12.70;99.90;;;;;;4950004;29;20042;-72
2023/04/24 08:36:01;;;;;;;1.67;0.98;;;12.70;99.90;;;;;;4950813;29;20162;-71
2023/04/24 08:38:27;;;;;;;3.65;1.00;;;12.60;99.90;;;;;;4952443;29;20050;-71
2023/04/24 08:40:53;;;;;;;3.88;0.90;;;12.70;99.90;;;;;;4949639;29;20397;-72
2023/04/24 08:43:21;;;;;;;3.03;1.20;;;12.70;99.90;;;;;;4948198;29;20035;-72
2023/04/24 08:45:47;;;;;;;4.63;0.90;;;12.80;99.90;;;;;;4950291;29;20042;-71
2023/04/24 08:48:13;;;;;;;1.10;1.00;;;12.80;99.90;;;;;;4951167;29;20027;-72
2023/04/24 08:50:42;;;;;;;2.35;1.10;;;12.80;99.90;;;;;;4948890;29;20035;-72
2023/04/24 08:53:08;;;;;;;5.63;1.10;;;12.70;99.90;;;;;;4948929;28;20388;-72
2023/04/24 08:55:34;;;;;;;3.88;0.95;;;12.60;99.90;;;;;;4955945;28;20114;-72
2023/04/24 08:58:02;;;;;;;3.33;1.10;;;12.50;99.90;;;;;;4950536;29;20031;-72
2023/04/24 09:00:28;;;;;;;1.08;0.93;;;12.40;99.90;;;;;;4947887;29;20031;-72
2023/04/24 09:02:54;;;;;;;3.00;1.40;;;12.50;99.90;;;;;;4951998;29;20078;-71
2023/04/24 09:05:23;;;;;;;2.25;1.30;;;12.70;99.90;;;;;;4948883;29;20404;-71
2023/04/24 09:07:54;;;;;;;7.90;1.27;;;12.90;99.90;;;;;;4948613;29;20035;-71
2023/04/24 09:10:21;;;;;;;3.30;1.67;;;13.00;99.90;;;;;;4949145;29;20560;-71
2023/04/24 09:12:47;;;;;;;2.60;1.20;;;13.00;99.90;;;;;;4948967;29;20055;-71
2023/04/24 09:15:13;;;;;;;2.08;1.13;;;12.80;99.90;;;;;;4951222;29;20069;-71
2023/04/24 09:17:39;;;;;;;1.90;1.00;;;12.60;99.90;;;;;;4931189;29;20035;-71
2023/04/24 09:20:05;;;;;;;5.38;1.38;;;12.40;99.90;;;;;;4944598;28;20039;-71
2023/04/24 09:22:31;;;;;;;2.05;1.10;;;12.10;99.90;;;;;;4941361;29;20042;-71
2023/04/24 09:25:06;;;;;;;6.72;1.20;;;11.80;99.90;;;;;;4951688;29;20065;-70
2023/04/24 09:27:35;;;;;;;1.77;1.20;;;11.60;99.90;;;;;;4945858;29;20062;-71
2023/04/24 09:30:02;;;;;;;4.65;1.40;;;11.50;99.90;;;;;;4952528;29;20045;-71
2023/04/24 09:32:29;;;;;;;1.88;0.90;;;11.50;99.90;;;;;;4949810;29;20023;-69
2023/04/24 09:35:14;;;;;;;1.98;1.17;;;11.40;99.90;;;;;;4951688;29;20074;-71
2023/04/24 09:37:46;;;;;;;3.42;1.23;;;11.20;99.90;;;;;;4949903;29;20673;-71
2023/04/24 09:40:19;;;;;;;3.22;1.50;;;11.10;99.90;;;;;;4945489;29;20090;-71
2023/04/24 09:42:56;;;;;;;2.90;1.13;;;11.10;99.90;;;;;;4951030;29;20027;-70
2023/04/24 09:45:27;;;;;;;3.05;1.33;;;11.20;99.90;;;;;;4950825;29;20032;-70
2023/04/24 09:47:55;;;;;;;2.45;1.27;;;11.30;99.90;;;;;;4950586;29;20495;-70
2023/04/24 09:50:21;;;;;;;2.05;1.10;;;11.40;99.90;;;;;;4950870;29;20027;-71
2023/04/24 09:52:56;;;;;;;2.15;1.00;;;11.60;99.90;;;;;;4950632;29;20043;-71
2023/04/24 09:55:22;;;;;;;1.25;0.88;;;12.00;99.90;;;;;;4950911;29;20381;-71
2023/04/24 09:57:49;;;;;;;1.40;1.05;;;12.20;99.90;;;;;;4952440;28;20027;-71
2023/04/24 10:00:18;;;;;;;3.30;1.20;;;12.40;99.90;;;;;;4948231;28;20043;-70
2023/04/24 10:02:44;;;;;;;2.60;1.20;;;12.60;99.90;;;;;;4949436;29;20055;-71
2023/04/24 10:05:11;;;;;;;3.65;1.20;;;12.60;99.90;;;;;;4950358;29;20489;-72
2023/04/24 10:07:38;;;;;;;6.90;1.55;;;12.80;99.90;;;;;;4950857;29;20400;-72
2023/04/24 10:10:04;;;;;;;5.13;1.30;;;12.90;99.90;;;;;;4949803;29;20035;-72
2023/04/24 10:12:30;;;;;;;2.35;1.40;;;13.00;99.90;;;;;;4949747;29;20059;-71
2023/04/24 10:14:57;;;;;;;2.78;0.80;;;13.20;99.90;;;;;;4950655;29;20066;-70
2023/04/24 10:17:25;;;;;;;1.50;0.73;;;13.20;99.90;;;;;;4949946;29;20051;-72
2023/04/24 10:19:51;;;;;;;2.58;0.80;;;13.00;99.30;;;;;;4951157;29;20054;-71
2023/04/24 10:22:17;;;;;;;3.45;0.73;;;13.00;99.00;;;;;;4949759;29;20031;-72
2023/04/24 10:24:45;;;;;;;3.50;0.80;;;13.10;98.10;;;;;;4933683;29;20114;-72
2023/04/24 10:27:12;;;;;;;1.65;0.95;;;13.40;96.80;;;;;;4949739;29;20118;-73
2023/04/24 10:29:40;;;;;;;1.80;0.80;;;13.60;96.80;;;;;;4949824;29;20536;-71
2023/04/24 10:32:07;;;;;;;1.77;0.82;;;14.00;95.80;;;;;;4933861;29;20035;-72
2023/04/24 10:34:32;;;;;;;1.02;0.80;;;14.20;95.40;;;;;;4950083;29;20044;-72
2023/04/24 10:36:58;;;;;;;2.10;0.93;;;14.40;95.60;;;;;;4950710;29;20464;-73
2023/04/24 10:39:24;;;;;;;1.92;1.00;;;14.60;94.30;;;;;;4951594;28;20035;-72
2023/04/24 10:41:50;;;;;;;3.33;1.25;;;14.70;93.10;;;;;;4953477;29;20039;-71
2023/04/24 10:44:16;;;;;;;0.90;0.90;;;14.50;93.30;;;;;;4953900;29;20067;-71
2023/04/24 10:46:49;;;;;;;1.98;0.80;;;14.20;93.40;;;;;;4954562;29;20106;-72
2023/04/24 10:49:15;;;;;;;1.80;1.02;;;14.00;94.00;;;;;;4952218;29;20027;-71
2023/04/24 10:51:49;;;;;;;1.17;0.93;;;13.90;94.20;;;;;;4951057;29;20046;-72
2023/04/24 10:54:29;;;;;;;1.10;0.60;;;13.90;94.30;;;;;;4952890;29;20523;-73
2023/04/24 10:57:20;;;;;;;1.85;1.30;;;13.80;94.40;;;;;;4953656;29;20473;-73
2023/04/24 10:59:47;;;;;;;1.63;1.05;;;13.70;94.80;;;;;;4947131;29;20027;-70
2023/04/24 11:02:16;;;;;;;1.40;0.90;;;13.70;95.40;;;;;;4960544;28;20027;-72
2023/04/24 11:04:44;;;;;;;0.77;0.77;;;13.80;95.60;;;;;;4956152;28;20051;-71
2023/04/24 11:07:11;;;;;;;2.40;1.02;;;14.00;95.70;;;;;;4952993;29;20110;-74
2023/04/24 11:09:37;;;;;;;1.92;0.90;;;14.00;94.80;;;;;;4953221;29;20039;-72
2023/04/24 11:12:13;;;;;;;3.28;0.98;;;14.00;95.00;;;;;;4951709;29;20094;-71
2023/04/24 11:14:57;;;;;;;0.68;0.68;;;13.70;95.00;;;;;;4953737;29;20035;-73
2023/04/24 11:17:37;;;;;;;1.25;0.77;;;13.60;96.00;;;;;;4952291;29;20070;-72
2023/04/24 11:20:17;;;;;;;1.42;0.98;;;13.40;95.80;;;;;;4948312;29;20075;-72
2023/04/24 11:22:43;;;;;;;4.07;1.10;;;13.30;95.20;;;;;;4955905;29;20394;-70
2023/04/24 11:25:11;;;;;;;3.03;1.23;;;13.30;95.30;;;;;;4953866;29;20041;-72
2023/04/24 11:27:42;;;;;;;5.38;1.02;;;13.30;95.50;;;;;;4952474;29;20076;-71
2023/04/24 11:30:10;;;;;;;1.35;0.80;;;13.40;95.20;;;;;;4953656;29;20126;-73
2023/04/24 11:32:49;;;;;;;2.30;1.00;;;13.60;95.30;;;;;;4953630;29;20376;-71
2023/04/24 11:35:24;;;;;;;0.90;0.80;;;13.90;94.30;;;;;;4950196;29;20579;-71
2023/04/24 11:37:52;;;;;;;0.73;0.60;;;14.20;94.20;;;;;;4953657;29;20042;-72
2023/04/24 11:40:20;;;;;;;1.42;0.77;;;14.50;94.10;;;;;;4952916;29;20465;-72
2023/04/24 11:42:48;;;;;;;1.60;1.20;;;14.70;94.20;;;;;;4953397;29;20038;-71
2023/04/24 11:45:23;;;;;;;3.83;1.10;;;14.80;92.60;;;;;;4953081;29;20358;-73
2023/04/24 11:47:49;;;;;;;2.33;0.95;;;14.80;92.70;;;;;;4947982;29;20034;-72
2023/04/24 11:50:21;;;;;;;3.55;1.00;;;14.60;93.30;;;;;;4951849;28;20745;-70
2023/04/24 11:52:48;;;;;;;2.30;1.00;;;14.30;93.90;;;;;;4953942;29;20031;-71
2023/04/24 11:55:14;;;;;;;1.88;1.15;;;14.00;93.90;;;;;;4954295;29;20058;-70
2023/04/24 11:57:44;;;;;;;1.20;0.70;;;13.70;94.80;;;;;;4957816;29;20027;-72
2023/04/24 12:00:19;;;;;;;0.75;0.73;;;13.40;95.00;;;;;;4942210;29;20070;-72
2023/04/24 12:02:44;;;;;;;1.45;0.90;;;13.20;95.30;;;;;;4953493;29;20067;-72
2023/04/24 12:05:25;;;;;;;1.25;0.73;;;13.20;97.10;;;;;;4953675;29;20065;-73
2023/04/24 12:07:53;;;;;;;4.85;1.02;;;13.50;96.80;;;;;;4948267;29;20035;-71
2023/04/24 12:10:22;;;;;;;1.70;0.95;;;13.90;96.00;;;;;;4953356;29;20035;-72
2023/04/24 12:12:50;;;;;;;2.43;0.97;;;14.30;95.00;;;;;;4954776;29;20029;-81
2023/04/24 12:15:16;;;;;;;3.60;1.23;;;14.60;94.80;;;;;;4952298;29;20271;-74
2023/04/24 12:17:43;;;;;;;0.80;0.70;;;14.70;93.80;;;;;;4957638;29;20039;-73
2023/04/24 12:20:09;;;;;;;2.65;0.90;;;14.50;93.10;;;;;;4964441;29;20028;-75
2023/04/24 12:22:46;;;;;;;1.65;1.00;;;14.20;93.50;;;;;;4960141;29;20027;-74
2023/04/24 12:25:12;;;;;;;2.15;1.13;;;14.00;93.90;;;;;;4960074;29;20384;-75
2023/04/24 12:27:38;;;;;;;0.88;0.73;;;13.70;94.40;;;;;;4959945;29;20035;-72
2023/04/24 12:30:05;;;;;;;1.00;0.90;;;13.50;95.00;;;;;;4954029;29;20046;-75
2023/04/24 12:32:31;;;;;;;5.20;1.00;;;13.40;95.00;;;;;;4950394;29;20054;-74
2023/04/24 12:34:58;;;;;;;4.45;1.10;;;13.40;94.30;;;;;;4952023;29;20090;-72
2023/04/24 12:37:26;;;;;;;1.63;1.02;;;13.30;94.30;;;;;;4949023;29;20493;-73
2023/04/24 12:40:10;;;;;;;4.95;1.35;;;13.30;94.30;;;;;;4948910;29;20042;-73
2023/04/24 12:42:42;;;;;;;4.07;1.10;;;13.20;94.50;;;;;;4953269;29;20369;-73
2023/04/24 12:45:07;;;;;;;1.58;0.93;;;13.20;94.60;;;;;;4952482;29;20397;-77
2023/04/24 12:47:34;;;;;;;2.17;1.20;;;13.40;94.20;;;;;;4950780;29;20027;-75
2023/04/24 12:50:00;;;;;;;2.10;1.05;;;13.60;94.10;;;;;;4952666;29;20020;-74
2023/04/24 12:52:28;;;;;;;1.33;0.98;;;13.70;93.80;;;;;;4950549;29;20134;-73
2023/04/24 12:54:55;;;;;;;3.95;0.93;;;13.70;93.80;;;;;;4952540;29;20020;-74
2023/04/24 12:57:22;;;;;;;2.83;1.05;;;13.60;93.90;;;;;;4949770;28;20516;-74
2023/04/24 12:59:48;;;;;;;1.48;1.02;;;13.50;94.20;;;;;;4944480;29;20118;-73
2023/04/24 13:02:17;;;;;;;1.60;0.80;;;13.40;93.90;;;;;;4949592;28;20035;-74
2023/04/24 13:04:49;;;;;;;3.60;0.95;;;13.20;94.30;;;;;;4946877;28;20493;-72